createdAt,value
2022-08-12T00:00:27.592Z,101843.13
2022-08-12T00:05:59.679Z,101838.00
2022-08-12T00:11:26.507Z,101835.84
2022-08-12T00:16:47.243Z,101842.63
2022-08-12T00:22:09.117Z,101831.06
2022-08-12T00:27:43.860Z,101831.34
2022-08-12T00:33:06.532Z,101829.53
2022-08-12T00:38:28.690Z,101837.84
2022-08-12T00:43:31.609Z,101840.03
2022-08-12T00:48:35.123Z,101836.84
2022-08-12T00:53:39.957Z,101832.69
2022-08-12T00:58:48.403Z,101832.13
2022-08-12T01:04:09.647Z,101837.41
2022-08-12T01:09:33.025Z,101837.31
2022-08-12T01:14:36.499Z,101837.19
2022-08-12T01:19:39.628Z,101832.56
2022-08-12T01:25:00.790Z,101826.22
2022-08-12T01:30:07.623Z,101835.47
2022-08-12T01:35:13.536Z,101822.34
2022-08-12T01:40:33.409Z,101829.25
2022-08-12T01:45:48.402Z,101827.19
2022-08-12T01:51:05.316Z,101818.88
2022-08-12T01:56:11.260Z,101812.47
2022-08-12T02:01:15.051Z,101812.66
2022-08-12T02:06:44.415Z,101814.25
2022-08-12T02:11:58.919Z,101813.19
2022-08-12T02:17:56.280Z,101822.47
2022-08-12T02:22:55.278Z,101805.81
2022-08-12T02:27:59.879Z,101809.06
2022-08-12T02:33:09.042Z,101802.91
2022-08-12T02:38:12.677Z,101805.53
2022-08-12T02:43:23.230Z,101804.13
2022-08-12T02:48:30.766Z,101804.78
2022-08-12T02:53:35.691Z,101805.41
2022-08-12T02:58:45.359Z,101803.00
2022-08-12T03:03:52.823Z,101796.44
2022-08-12T03:08:59.632Z,101795.22
2022-08-12T03:14:07.086Z,101787.34
2022-08-12T03:19:12.060Z,101784.53
2022-08-12T03:24:18.497Z,101786.81
2022-08-12T03:29:30.257Z,101789.81
2022-08-12T03:34:35.316Z,101780.66
2022-08-12T03:39:44.905Z,101788.06
2022-08-12T03:45:14.877Z,101773.81
2022-08-12T03:50:35.788Z,101783.50
2022-08-12T03:55:56.189Z,101779.84
2022-08-12T04:01:00.591Z,101776.00
2022-08-12T04:06:03.487Z,101774.13
2022-08-12T04:11:25.496Z,101783.66
2022-08-12T04:16:31.485Z,101775.84
2022-08-12T04:21:36.167Z,101774.19
2022-08-12T04:26:40.876Z,101776.97
2022-08-12T04:31:47.555Z,101777.22
2022-08-12T04:36:50.392Z,101778.25
2022-08-12T04:41:58.329Z,101786.28
2022-08-12T04:47:03.248Z,101782.81
2022-08-12T04:52:06.759Z,101787.47
2022-08-12T04:57:35.554Z,101773.69
2022-08-12T05:02:40.512Z,101773.59
2022-08-12T05:07:53.100Z,101778.72
2022-08-12T05:12:59.535Z,101772.72
2022-08-12T05:18:19.703Z,101784.47
2022-08-12T05:23:23.542Z,101785.88
2022-08-12T05:28:27.731Z,101786.44
2022-08-12T05:33:37.580Z,101776.38
2022-08-12T05:38:59.804Z,101775.59
2022-08-12T05:44:05.709Z,101787.84
2022-08-12T05:49:10.323Z,101790.31
2022-08-12T05:54:13.237Z,101794.22
2022-08-12T05:59:16.298Z,101790.03
2022-08-12T06:04:20.492Z,101787.06
2022-08-12T06:09:25.667Z,101795.44
2022-08-12T06:14:28.998Z,101804.91
2022-08-12T06:20:26.046Z,101799.66
2022-08-12T06:25:00.462Z,101805.47
2022-08-12T06:30:08.177Z,101809.94
2022-08-12T06:35:26.843Z,101803.75
2022-08-12T06:40:57.195Z,101814.38
2022-08-12T06:46:00.683Z,101808.66
2022-08-12T06:51:05.678Z,101807.63
2022-08-12T06:56:12.398Z,101805.38
2022-08-12T07:01:17.441Z,101808.47
2022-08-12T07:06:21.703Z,101797.63
2022-08-12T07:11:24.767Z,101787.66
2022-08-12T07:16:28.484Z,101797.72
2022-08-12T07:22:00.388Z,101796.31
2022-08-12T07:26:56.747Z,101790.00
2022-08-12T07:31:59.700Z,101794.06
2022-08-12T07:37:03.965Z,101790.78
2022-08-12T07:42:07.261Z,101802.78
2022-08-12T07:47:10.678Z,101808.19
2022-08-12T07:52:17.038Z,101803.59
2022-08-12T07:57:19.882Z,101795.19
2022-08-12T08:02:26.773Z,101800.75
2022-08-12T08:07:31.458Z,101811.03
2022-08-12T08:12:51.960Z,101807.38
2022-08-12T08:18:01.719Z,101812.56
2022-08-12T08:23:08.283Z,101804.88
2022-08-12T08:28:12.079Z,101810.13
2022-08-12T08:33:24.597Z,101811.72
2022-08-12T08:38:44.668Z,101803.66
2022-08-12T08:44:03.056Z,101800.66
2022-08-12T08:49:06.325Z,101796.97
2022-08-12T08:54:11.537Z,101798.63
2022-08-12T08:59:15.086Z,101801.53
2022-08-12T09:05:12.014Z,101796.66
2022-08-12T09:10:01.982Z,101794.09
2022-08-12T09:20:33.557Z,101801.97
2022-08-12T09:25:37.975Z,101789.38
2022-08-12T09:30:47.329Z,101788.00
2022-08-12T09:36:04.464Z,101784.31
2022-08-12T09:42:34.502Z,101775.84
2022-08-12T09:46:32.355Z,101783.91
2022-08-12T09:51:43.661Z,101779.63
2022-08-12T09:57:02.006Z,101779.91
2022-08-12T10:02:43.996Z,101769.91
2022-08-12T10:07:39.770Z,101748.88
2022-08-12T10:13:06.955Z,101754.75
2022-08-12T10:18:12.056Z,101754.44
2022-08-12T10:23:15.198Z,101745.50
2022-08-12T10:28:38.381Z,101741.25
2022-08-12T10:33:50.650Z,101730.94
2022-08-12T10:40:00.164Z,101729.91
2022-08-12T10:44:30.979Z,101712.72
2022-08-12T10:50:03.592Z,101713.53
2022-08-12T10:54:58.530Z,101706.44
2022-08-12T11:00:30.947Z,101704.75
2022-08-12T11:07:08.937Z,101701.09
2022-08-12T11:10:48.479Z,101691.31
2022-08-12T11:16:19.419Z,101686.38
2022-08-12T11:21:18.117Z,101681.13
2022-08-12T11:26:21.685Z,101683.16
2022-08-12T11:31:26.059Z,101680.66
2022-08-12T11:36:53.540Z,101677.00
2022-08-12T11:41:56.444Z,101676.00
2022-08-12T11:47:03.839Z,101677.91
2022-08-12T11:52:17.564Z,101675.44
2022-08-12T11:58:07.613Z,101670.88
2022-08-12T12:03:17.303Z,101664.88
2022-08-12T12:08:37.700Z,101661.38
2022-08-12T12:14:08.101Z,101655.19
2022-08-12T12:19:10.267Z,101659.59
2022-08-12T12:24:13.278Z,101655.16
2022-08-12T12:29:16.072Z,101651.59
2022-08-12T12:34:40.283Z,101644.47
2022-08-12T12:40:03.082Z,101642.72
2022-08-12T12:45:19.059Z,101625.91
2022-08-12T12:50:26.877Z,101617.91
2022-08-12T12:55:39.734Z,101631.16
2022-08-12T13:00:49.974Z,101622.31
2022-08-12T13:06:00.543Z,101613.38
2022-08-12T13:11:05.781Z,101608.03
2022-08-12T13:16:14.287Z,101613.41
2022-08-12T13:21:33.664Z,101604.50
2022-08-12T13:26:40.609Z,101601.91
2022-08-12T13:32:01.999Z,101602.81
2022-08-12T13:37:09.876Z,101598.34
2022-08-12T13:42:14.787Z,101602.78
2022-08-12T13:47:19.549Z,101592.13
2022-08-12T13:52:25.697Z,101589.47
2022-08-12T13:57:46.885Z,101593.84
2022-08-12T14:02:53.162Z,101584.94
2022-08-12T14:07:59.104Z,101568.97
2022-08-12T14:13:10.320Z,101570.78
2022-08-12T14:18:21.370Z,101573.44
2022-08-12T14:24:04.365Z,101564.53
2022-08-12T14:28:57.882Z,101561.88
2022-08-12T14:34:05.305Z,101572.53
2022-08-12T14:39:09.706Z,101560.09
2022-08-12T14:44:58.144Z,101559.22
2022-08-12T14:50:37.190Z,101549.44
2022-08-12T15:00:47.234Z,101539.63
2022-08-12T15:06:05.434Z,101544.97
2022-08-12T15:11:21.795Z,101548.53
2022-08-12T15:16:25.827Z,101542.31
2022-08-12T15:22:35.557Z,101533.41
2022-08-12T15:26:58.380Z,101541.41
2022-08-12T15:32:07.695Z,101535.16
2022-08-12T15:37:18.664Z,101530.72
2022-08-12T15:42:24.620Z,101525.41
2022-08-12T15:47:43.099Z,101519.13
2022-08-12T15:52:51.721Z,101512.97
2022-08-12T15:57:58.388Z,101517.38
2022-08-12T16:03:05.598Z,101501.38
2022-08-12T16:08:19.751Z,101506.69
2022-08-12T16:13:34.342Z,101504.03
2022-08-12T16:18:39.270Z,101501.34
2022-08-12T16:23:52.178Z,101495.13
2022-08-12T16:29:02.541Z,101497.81
2022-08-12T16:34:41.945Z,101487.13
2022-08-12T16:40:01.105Z,101477.34
2022-08-12T16:45:06.875Z,101488.88
2022-08-12T16:50:11.496Z,101480.88
2022-08-12T16:55:18.725Z,101478.22
2022-08-12T17:00:24.075Z,101476.34
2022-08-12T17:05:31.161Z,101490.53
2022-08-12T17:10:35.525Z,101492.22
2022-08-12T17:15:57.003Z,101481.47
2022-08-12T17:21:07.402Z,101489.47
2022-08-12T17:26:11.342Z,101487.56
2022-08-12T17:31:17.757Z,101487.44
2022-08-12T17:36:43.320Z,101488.28
2022-08-12T17:41:56.944Z,101496.19
2022-08-12T17:47:03.172Z,101494.25
2022-08-12T17:52:08.160Z,101495.91
2022-08-12T17:57:16.568Z,101497.63
2022-08-12T18:02:25.423Z,101510.81
2022-08-12T18:07:35.962Z,101510.50
2022-08-12T18:12:42.719Z,101504.13
2022-08-12T18:18:00.009Z,101507.53
2022-08-12T18:23:05.314Z,101506.50
2022-08-12T18:28:15.193Z,101510.81
2022-08-12T18:33:24.765Z,101520.31
2022-08-12T18:38:28.283Z,101513.00
2022-08-12T18:43:38.942Z,101527.81
2022-08-12T18:48:57.511Z,101521.34
2022-08-12T18:54:21.094Z,101531.88
2022-08-12T19:00:00.972Z,101530.78
2022-08-12T19:04:53.840Z,101542.16
2022-08-12T19:10:00.046Z,101540.91
2022-08-12T19:15:08.119Z,101543.44
2022-08-12T19:20:14.702Z,101543.91
2022-08-12T19:25:23.915Z,101540.34
2022-08-12T19:31:03.942Z,101555.09
2022-08-12T19:36:25.417Z,101555.50
2022-08-12T19:41:42.996Z,101554.50
2022-08-12T19:46:53.201Z,101564.16
2022-08-12T19:51:58.033Z,101561.22
2022-08-12T19:57:01.492Z,101560.97
2022-08-12T20:02:08.742Z,101557.00
2022-08-12T20:07:23.923Z,101566.22
2022-08-12T20:12:34.585Z,101563.22
2022-08-12T20:17:50.485Z,101565.06
2022-08-12T20:22:55.739Z,101569.44
2022-08-12T20:28:04.172Z,101571.91
2022-08-12T20:33:17.398Z,101570.00
2022-08-12T20:38:27.988Z,101576.13
2022-08-12T20:43:35.960Z,101573.31
2022-08-12T20:48:44.277Z,101578.78
2022-08-12T20:53:57.881Z,101573.34
2022-08-12T20:59:05.422Z,101562.28
2022-08-12T21:04:27.204Z,101562.50
2022-08-12T21:09:34.284Z,101570.84
2022-08-12T21:14:53.399Z,101570.63
2022-08-12T21:20:04.463Z,101563.28
2022-08-12T21:25:14.227Z,101563.78
2022-08-12T21:30:20.207Z,101574.69
2022-08-12T21:35:30.405Z,101575.13
2022-08-12T21:40:51.791Z,101572.06
2022-08-12T21:46:01.232Z,101572.53
2022-08-12T21:51:22.668Z,101567.72
2022-08-12T21:56:34.453Z,101577.28
2022-08-12T22:01:48.383Z,101571.66
2022-08-12T22:06:53.435Z,101580.00
2022-08-12T22:12:19.930Z,101576.00
2022-08-12T22:17:33.898Z,101581.75
2022-08-12T22:22:56.092Z,101573.19
2022-08-12T22:28:24.560Z,101578.25
2022-08-12T22:33:27.716Z,101581.00
2022-08-12T22:38:30.654Z,101577.59
2022-08-12T22:44:00.344Z,101576.31
2022-08-12T22:49:06.712Z,101573.88
2022-08-12T22:54:36.650Z,101572.25
2022-08-12T22:59:51.384Z,101580.34
2022-08-12T23:04:59.244Z,101582.53
2022-08-12T23:10:04.130Z,101579.66
2022-08-12T23:15:10.272Z,101588.38
2022-08-12T23:20:15.011Z,101587.59
2022-08-12T23:25:19.000Z,101591.13
2022-08-12T23:30:31.047Z,101583.66
2022-08-12T23:35:54.051Z,101590.34
2022-08-12T23:41:02.742Z,101589.81
2022-08-12T23:46:08.750Z,101594.84
2022-08-12T23:51:22.435Z,101594.06
2022-08-12T23:56:28.589Z,101590.72
